Time;durP1;ratioP1;P1;durP2;ratioP2;P2;SDS_P1;SDS_P2;PMS_P1;PMS_P2;Temp;Humidity;BMP_temperature;BMP_pressure;BME280_temperature;BME280_humidity;BME280_pressure;Samples;Min_cycle;Max_cycle;Signal;HPM_P1;HPM_P2
2023/04/27 00:00:51;;;;;;;1.00;0.95;;;;;;;10.13;48.26;101367.81;6340105;23;20018;-87
2023/04/27 00:03:21;;;;;;;0.60;0.60;;;;;;;10.03;48.68;101373.22;6342097;23;20426;-89
2023/04/27 00:05:52;;;;;;;0.70;0.70;;;;;;;10.12;48.00;101376.63;6370390;23;20097;-86
2023/04/27 00:08:22;;;;;;;0.47;0.47;;;;;;;10.02;47.98;101376.75;6343977;23;20006;-88
2023/04/27 00:10:52;;;;;;;0.30;0.30;;;;;;;10.11;47.88;101382.75;6342956;23;20028;-88
2023/04/27 00:13:23;;;;;;;0.40;0.40;;;;;;;9.97;48.56;101388.19;6370383;23;20009;-88
2023/04/27 00:15:54;;;;;;;0.93;0.93;;;;;;;10.06;47.49;101382.81;6374407;23;20061;-87
2023/04/27 00:18:24;;;;;;;0.40;0.40;;;;;;;9.98;47.96;101382.03;6364687;23;20005;-88
2023/04/27 00:20:55;;;;;;;1.50;1.40;;;;;;;10.02;47.65;101382.00;6363800;23;20028;-87
2023/04/27 00:23:26;;;;;;;1.50;1.40;;;;;;;10.02;47.94;101387.22;6367078;23;20005;-87
2023/04/27 00:25:57;;;;;;;0.82;0.82;;;;;;;9.83;48.58;101386.63;6391274;23;20097;-87
2023/04/27 00:28:27;;;;;;;0.40;0.40;;;;;;;9.80;48.41;101383.16;6365833;23;20002;-87
2023/04/27 00:30:57;;;;;;;2.83;1.70;;;;;;;9.68;48.75;101390.28;6353147;23;20064;-87
2023/04/27 00:33:28;;;;;;;0.55;0.55;;;;;;;9.64;49.17;101383.34;6345449;23;20032;-87
2023/04/27 00:36:00;;;;;;;1.00;0.70;;;;;;;9.72;49.36;101389.34;6342302;23;20033;-88
2023/04/27 00:38:30;;;;;;;0.35;0.35;;;;;;;9.59;49.27;101390.41;6377959;23;20089;-88
2023/04/27 00:41:05;;;;;;;0.60;0.60;;;;;;;9.66;48.40;101389.44;6341550;23;20045;-87
2023/04/27 00:43:44;;;;;;;0.85;0.40;;;;;;;9.72;48.10;101386.72;6343684;23;20099;-88
2023/04/27 00:46:15;;;;;;;0.40;0.40;;;;;;;9.68;48.42;101377.19;6342152;23;20044;-86
2023/04/27 00:48:46;;;;;;;0.50;0.50;;;;;;;9.61;48.92;101379.00;6342974;23;20017;-87
2023/04/27 00:51:17;;;;;;;0.60;0.60;;;;;;;9.47;50.00;101372.19;6339665;23;20025;-87
2023/04/27 00:53:50;;;;;;;0.30;0.30;;;;;;;9.32;50.72;101384.59;6343531;23;20310;-87
2023/04/27 00:56:21;;;;;;;0.40;0.40;;;;;;;9.36;49.80;101382.81;6340367;23;20317;-87
2023/04/27 00:58:52;;;;;;;0.47;0.47;;;;;;;9.50;48.63;101374.78;6341939;23;20012;-86
2023/04/27 01:01:22;;;;;;;0.20;0.20;;;;;;;9.50;48.70;101377.41;6350553;23;20017;-87
2023/04/27 01:03:53;;;;;;;0.60;0.60;;;;;;;9.44;49.14;101379.25;6365110;23;19997;-86
2023/04/27 01:06:23;;;;;;;0.47;0.47;;;;;;;9.47;48.86;101382.69;6363747;23;20346;-87
2023/04/27 01:08:55;;;;;;;0.35;0.35;;;;;;;9.38;49.34;101379.28;6353372;23;20140;-86
2023/04/27 01:11:25;;;;;;;0.68;0.68;;;;;;;9.32;49.66;101379.38;6342341;23;20609;-87
2023/04/27 01:13:56;;;;;;;1.17;0.85;;;;;;;9.32;49.16;101381.13;6344450;23;20093;-87
2023/04/27 01:16:26;;;;;;;0.50;0.50;;;;;;;9.38;49.29;101378.44;6343880;23;20009;-87
2023/04/27 01:18:57;;;;;;;0.52;0.52;;;;;;;9.39;49.17;101382.78;6346138;23;20028;-87
2023/04/27 01:21:27;;;;;;;0.30;0.30;;;;;;;9.25;50.29;101377.69;6344705;23;20010;-87
2023/04/27 01:23:58;;;;;;;0.50;0.50;;;;;;;9.32;49.35;101381.97;6347939;23;20013;-87
2023/04/27 01:26:28;;;;;;;0.30;0.30;;;;;;;9.09;50.57;101377.88;6345461;23;20016;-87
2023/04/27 01:28:59;;;;;;;0.77;0.77;;;;;;;9.10;50.16;101379.59;6346681;23;20005;-87
2023/04/27 01:31:30;;;;;;;1.88;1.75;;;;;;;9.10;49.48;101382.22;6366506;23;20459;-88
2023/04/27 01:34:01;;;;;;;0.60;0.60;;;;;;;9.09;49.32;101383.09;6351879;23;20032;-87
2023/04/27 01:36:31;;;;;;;0.38;0.38;;;;;;;9.11;49.25;101385.69;6370016;23;20013;-87
2023/04/27 01:39:03;;;;;;;0.50;0.50;;;;;;;9.16;49.52;101385.66;6347090;23;20016;-87
2023/04/27 01:41:35;;;;;;;0.63;0.63;;;;;;;9.14;49.92;101385.69;6345536;23;20036;-87
2023/04/27 01:44:06;;;;;;;1.10;1.05;;;;;;;9.03;49.64;101383.16;6370266;23;20005;-88
2023/04/27 01:46:36;;;;;;;0.93;0.93;;;;;;;8.88;50.94;101389.41;6344133;23;20024;-86
2023/04/27 01:49:07;;;;;;;0.30;0.30;;;;;;;8.79;50.77;101392.09;6346054;23;20003;-87
2023/04/27 01:51:37;;;;;;;0.88;0.88;;;;;;;8.85;50.42;101396.44;6343218;23;20076;-86
2023/04/27 01:54:07;;;;;;;0.50;0.50;;;;;;;8.73;51.54;101400.03;6345330;23;20447;-88
2023/04/27 01:56:38;;;;;;;0.60;0.60;;;;;;;8.71;50.89;101402.66;6342415;23;20005;-88
2023/04/27 01:59:08;;;;;;;0.40;0.40;;;;;;;8.79;50.64;101399.97;6344275;23;20088;-86
2023/04/27 02:01:39;;;;;;;1.17;1.17;;;;;;;8.75;50.53;101400.88;6340826;23;20072;-87
2023/04/27 02:04:09;;;;;;;0.98;0.95;;;;;;;8.48;51.87;101400.22;6343318;23;20006;-86
2023/04/27 02:06:40;;;;;;;0.57;0.57;;;;;;;8.56;51.19;101395.78;6343899;23;20060;-87
2023/04/27 02:09:10;;;;;;;0.40;0.40;;;;;;;8.60;50.98;101404.47;6342776;23;20399;-87
2023/04/27 02:11:41;;;;;;;1.15;1.15;;;;;;;8.58;51.10;101396.66;6366511;23;20076;-87
2023/04/27 02:14:11;;;;;;;8.35;1.67;;;;;;;8.61;50.44;101393.16;6341920;23;20060;-87
2023/04/27 02:16:42;;;;;;;0.45;0.45;;;;;;;8.66;50.43;101392.22;6342906;23;20070;-87
2023/04/27 02:19:12;;;;;;;0.50;0.50;;;;;;;8.68;50.48;101404.44;6341921;23;20012;-87
2023/04/27 02:21:42;;;;;;;0.30;0.30;;;;;;;8.68;50.53;101402.69;6341744;23;20032;-88
2023/04/27 02:24:13;;;;;;;0.80;0.80;;;;;;;8.63;50.26;101404.47;6341555;23;20013;-87
2023/04/27 02:26:43;;;;;;;0.70;0.70;;;;;;;8.53;51.10;101408.03;6342773;23;20013;-88
2023/04/27 03:21:19;;;;;;;0.32;0.32;;;;;;;8.12;50.88;101387.34;6370235;23;20025;-87
2023/04/27 03:23:49;;;;;;;0.30;0.30;;;;;;;8.16;51.37;101394.28;6367331;23;20006;-86
2023/04/27 03:26:20;;;;;;;0.75;0.75;;;;;;;8.08;51.17;101398.69;6364683;23;20088;-87
2023/04/27 03:28:50;;;;;;;0.50;0.50;;;;;;;8.14;51.80;101396.03;6341954;23;20039;-87
2023/04/27 03:31:21;;;;;;;0.30;0.30;;;;;;;8.13;51.77;101389.09;6364390;23;20036;-87
2023/04/27 03:33:51;;;;;;;0.45;0.45;;;;;;;8.14;51.86;101385.59;6342589;23;20335;-87
2023/04/27 03:36:21;;;;;;;1.13;1.08;;;;;;;8.14;51.98;101380.34;6338894;23;20020;-86
2023/04/27 03:38:52;;;;;;;0.88;0.88;;;;;;;8.11;51.56;101390.84;6342119;23;20017;-87
2023/04/27 03:41:22;;;;;;;0.82;0.82;;;;;;;8.06;51.39;101379.53;6363747;23;20013;-88
2023/04/27 03:43:53;;;;;;;0.35;0.35;;;;;;;8.05;52.30;101385.66;6341561;23;20013;-88
2023/04/27 03:46:23;;;;;;;1.80;0.93;;;;;;;8.03;51.53;101383.03;6340257;23;20033;-86
2023/04/27 03:48:54;;;;;;;0.55;0.55;;;;;;;8.00;52.10;101385.69;6342597;23;20033;-87
2023/04/27 03:51:24;;;;;;;0.73;0.73;;;;;;;7.99;52.02;101391.78;6339411;23;20330;-87
2023/04/27 03:53:55;;;;;;;1.90;1.75;;;;;;;7.97;51.91;101390.91;6341679;23;20009;-87
2023/04/27 03:56:25;;;;;;;0.47;0.47;;;;;;;7.99;52.27;101388.28;6340136;23;20018;-87
2023/04/27 03:58:56;;;;;;;0.77;0.77;;;;;;;7.95;51.84;101403.13;6367093;23;20064;-86
2023/04/27 04:01:26;;;;;;;0.80;0.80;;;;;;;7.94;52.07;101397.91;6339091;23;20072;-88
2023/04/27 04:03:56;;;;;;;0.50;0.50;;;;;;;7.97;52.48;101405.75;6366820;23;20018;-87
2023/04/27 04:06:27;;;;;;;0.50;0.50;;;;;;;7.84;52.68;101413.63;6366973;23;20575;-87
2023/04/27 04:08:58;;;;;;;0.60;0.60;;;;;;;7.51;53.68;101420.72;6342257;23;20005;-86
2023/04/27 04:11:28;;;;;;;2.10;1.10;;;;;;;7.49;52.56;101422.47;6365270;23;20009;-88
2023/04/27 04:13:59;;;;;;;0.45;0.45;;;;;;;7.46;52.42;101422.50;6350685;23;20049;-88
2023/04/27 04:16:29;;;;;;;0.95;0.93;;;;;;;7.47;52.71;101419.00;6346519;23;20463;-87
2023/04/27 04:19:00;;;;;;;0.57;0.57;;;;;;;7.49;52.11;101416.38;6344342;23;20010;-84
2023/04/27 04:21:30;;;;;;;0.45;0.45;;;;;;;7.34;53.45;101418.19;6336576;23;20021;-83
2023/04/27 04:24:01;;;;;;;0.43;0.43;;;;;;;7.38;52.45;101416.41;6373267;23;20088;-84
2023/04/27 04:26:32;;;;;;;0.32;0.32;;;;;;;7.27;53.10;101418.19;6335570;23;20360;-84
2023/04/27 04:29:02;;;;;;;0.52;0.52;;;;;;;7.28;53.53;101414.69;6336969;23;20009;-84
2023/04/27 04:31:33;;;;;;;0.73;0.73;;;;;;;7.27;52.88;101418.19;6356222;23;20013;-85
2023/04/27 04:34:03;;;;;;;1.55;1.45;;;;;;;7.30;52.92;101418.19;6370815;23;20016;-84
2023/04/27 04:36:35;;;;;;;0.30;0.30;;;;;;;7.35;53.05;101419.03;6331268;23;20029;-84
2023/04/27 04:39:06;;;;;;;0.57;0.57;;;;;;;7.44;52.98;101423.38;6368971;23;20005;-85
2023/04/27 04:41:36;;;;;;;0.38;0.38;;;;;;;7.48;53.00;101425.09;6354761;23;20024;-84
2023/04/27 04:44:07;;;;;;;0.60;0.60;;;;;;;7.49;53.29;101426.84;6333021;23;20479;-85
2023/04/27 04:46:37;;;;;;;0.25;0.25;;;;;;;7.51;52.62;101433.78;6355044;23;20017;-84
2023/04/27 04:49:08;;;;;;;0.30;0.30;;;;;;;7.51;53.59;101425.94;6333083;23;20413;-84
2023/04/27 04:51:42;;;;;;;0.80;0.80;;;;;;;7.47;52.93;101426.84;6331924;23;20021;-81
2023/04/27 04:54:13;;;;;;;1.55;1.35;;;;;;;7.42;52.82;101433.81;6333992;23;20016;-84
2023/04/27 04:56:44;;;;;;;0.70;0.70;;;;;;;7.37;52.84;101430.34;6355956;23;20093;-83
2023/04/27 04:59:15;;;;;;;3.22;0.88;;;;;;;7.29;52.80;101437.31;6331455;23;20010;-83
2023/04/27 05:01:45;;;;;;;0.47;0.47;;;;;;;7.28;53.09;101438.19;6332135;23;20014;-84
2023/04/27 05:04:17;;;;;;;2.17;0.80;;;;;;;7.20;52.50;101441.69;6331714;23;20451;-84
2023/04/27 05:06:48;;;;;;;0.90;0.90;;;;;;;7.21;53.70;101438.22;6356356;23;20020;-84
2023/04/27 05:09:18;;;;;;;0.30;0.30;;;;;;;7.23;53.68;101431.22;6331412;23;20446;-84
2023/04/27 05:11:49;;;;;;;0.50;0.50;;;;;;;7.25;52.98;101437.31;6355775;23;20205;-84
2023/04/27 05:14:19;;;;;;;0.77;0.77;;;;;;;7.26;53.43;101435.59;6357084;23;20002;-84
2023/04/27 05:16:50;;;;;;;0.70;0.70;;;;;;;7.27;53.49;101428.63;6358616;23;20064;-83
2023/04/27 05:19:21;;;;;;;0.95;0.95;;;;;;;7.29;53.49;101430.34;6332802;23;20089;-84
2023/04/27 05:21:51;;;;;;;0.80;0.80;;;;;;;7.32;53.11;101437.28;6331990;23;20013;-84
2023/04/27 05:24:21;;;;;;;1.58;1.13;;;;;;;7.25;53.17;101447.75;6332660;23;20015;-84
2023/04/27 05:26:52;;;;;;;0.68;0.68;;;;;;;7.25;53.01;101450.38;6363946;23;20017;-84
2023/04/27 05:29:22;;;;;;;0.60;0.60;;;;;;;7.27;53.26;101454.72;6332724;23;20455;-84
2023/04/27 05:31:53;;;;;;;0.65;0.65;;;;;;;7.16;53.42;101445.16;6331061;23;20096;-84
2023/04/27 05:34:23;;;;;;;1.42;1.33;;;;;;;7.17;53.50;101444.28;6357936;23;20013;-83
2023/04/27 05:36:54;;;;;;;0.57;0.57;;;;;;;7.11;54.98;101446.91;6364143;23;20014;-84
2023/04/27 05:39:25;;;;;;;0.60;0.60;;;;;;;7.12;53.88;101453.00;6367295;23;20420;-84
2023/04/27 05:41:56;;;;;;;0.73;0.73;;;;;;;7.17;53.62;101457.34;6332719;23;20093;-84
2023/04/27 05:44:28;;;;;;;0.88;0.73;;;;;;;7.04;55.59;101460.84;6367160;23;20472;-83
2023/04/27 05:46:58;;;;;;;4.60;3.13;;;;;;;7.01;55.08;101464.31;6362781;23;20105;-84
2023/04/27 05:49:29;;;;;;;0.65;0.65;;;;;;;6.83;58.18;101467.78;6333295;23;20040;-83
2023/04/27 05:52:00;;;;;;;1.45;0.95;;;;;;;6.91;55.46;101459.97;6362621;23;20092;-83
2023/04/27 05:54:30;;;;;;;0.50;0.50;;;;;;;6.86;58.82;101469.56;6333213;23;20013;-84
2023/04/27 05:57:01;;;;;;;1.38;1.27;;;;;;;6.79;58.43;101471.28;6362830;23;20018;-84
2023/04/27 05:59:31;;;;;;;0.65;0.65;;;;;;;7.05;55.53;101473.03;6333034;23;20009;-83
2023/04/27 06:02:02;;;;;;;0.77;0.77;;;;;;;7.10;55.21;101473.88;6365289;23;20017;-83
2023/04/27 06:04:32;;;;;;;0.68;0.68;;;;;;;7.08;57.02;101467.78;6358333;23;20144;-83
2023/04/27 06:07:13;;;;;;;0.68;0.68;;;;;;;7.05;56.59;101465.19;6339146;23;20014;-83
2023/04/27 06:09:44;;;;;;;0.55;0.55;;;;;;;6.84;60.38;101473.88;6335021;23;20009;-83
2023/04/27 06:12:14;;;;;;;0.52;0.52;;;;;;;7.12;58.28;101477.38;6334427;23;20486;-83
2023/04/27 06:14:44;;;;;;;2.47;2.05;;;;;;;7.02;57.68;101475.63;6369305;23;20030;-83
2023/04/27 06:17:15;;;;;;;1.00;1.00;;;;;;;7.06;58.34;101479.97;6335284;23;20534;-83
2023/04/27 06:19:45;;;;;;;1.02;0.93;;;;;;;7.17;56.98;101478.22;6334110;23;20045;-83
2023/04/27 06:22:16;;;;;;;0.57;0.57;;;;;;;7.21;58.00;101477.38;6358557;23;20101;-82
2023/04/27 06:24:46;;;;;;;1.20;1.20;;;;;;;7.08;58.61;101476.50;6369058;23;20043;-83
2023/04/27 06:27:17;;;;;;;0.90;0.77;;;;;;;7.09;58.91;101470.41;6362904;23;20014;-82
2023/04/27 06:29:47;;;;;;;1.42;1.38;;;;;;;7.04;60.24;101471.28;6334270;23;20528;-83
2023/04/27 06:32:18;;;;;;;0.70;0.70;;;;;;;7.25;59.07;101468.63;6361688;23;20460;-83
2023/04/27 06:34:48;;;;;;;1.45;1.35;;;;;;;6.97;61.20;101469.53;6346836;23;20017;-83
2023/04/27 06:37:19;;;;;;;0.55;0.55;;;;;;;7.13;59.51;101468.66;6390784;23;20013;-83
2023/04/27 06:39:49;;;;;;;0.50;0.50;;;;;;;7.20;59.03;101474.72;6393077;23;20017;-83
2023/04/27 06:42:20;;;;;;;0.73;0.73;;;;;;;7.34;57.43;101467.78;6385969;23;20037;-83
2023/04/27 06:44:53;;;;;;;0.73;0.73;;;;;;;7.15;61.00;101474.72;6389956;23;19993;-82
2023/04/27 06:47:24;;;;;;;0.30;0.30;;;;;;;7.28;58.96;101472.13;6361175;23;20020;-83
2023/04/27 06:49:55;;;;;;;0.80;0.80;;;;;;;7.35;59.22;101477.34;6336805;23;20456;-82
2023/04/27 06:52:25;;;;;;;0.30;0.30;;;;;;;7.55;58.67;101474.69;6336367;23;20241;-84
2023/04/27 06:54:56;;;;;;;1.42;1.38;;;;;;;7.27;61.13;101473.00;6367956;23;20013;-84
2023/04/27 06:57:26;;;;;;;1.52;1.42;;;;;;;7.43;59.53;101474.72;6362590;23;20017;-83
2023/04/27 06:59:57;;;;;;;0.30;0.30;;;;;;;7.55;59.95;101477.31;6359615;23;20049;-85
2023/04/27 07:02:27;;;;;;;0.57;0.57;;;;;;;7.60;59.63;101471.19;6369577;23;20021;-84
2023/04/27 07:04:58;;;;;;;0.68;0.68;;;;;;;7.65;59.26;101472.91;6394178;23;20012;-84
2023/04/27 07:07:28;;;;;;;2.65;1.83;;;;;;;7.79;58.42;101472.88;6373720;23;20401;-83
2023/04/27 07:09:58;;;;;;;0.95;0.95;;;;;;;7.65;59.72;101469.41;6336442;23;20072;-84
2023/04/27 07:12:29;;;;;;;0.90;0.90;;;;;;;7.84;58.27;101471.09;6362312;23;20025;-81
2023/04/27 07:15:00;;;;;;;1.65;1.10;;;;;;;7.77;59.57;101468.53;6359077;23;20017;-83
2023/04/27 07:17:31;;;;;;;0.93;0.93;;;;;;;7.90;58.56;101464.09;6334362;23;20041;-84
2023/04/27 07:20:04;;;;;;;0.30;0.30;;;;;;;7.99;58.67;101474.53;6333986;23;20018;-84
2023/04/27 07:22:35;;;;;;;2.20;1.13;;;;;;;7.96;58.59;101470.19;6333544;23;20045;-84
2023/04/27 07:25:06;;;;;;;0.68;0.68;;;;;;;8.09;58.06;101471.00;6334615;23;20455;-84
2023/04/27 07:27:37;;;;;;;1.05;1.05;;;;;;;8.14;58.43;101468.38;6334604;23;20355;-84
2023/04/27 07:30:08;;;;;;;0.55;0.55;;;;;;;8.27;58.12;101474.41;6364872;23;20044;-84
2023/04/27 07:32:43;;;;;;;1.02;0.98;;;;;;;8.22;58.14;101466.59;6331823;23;20483;-85
2023/04/27 07:35:13;;;;;;;0.95;0.95;;;;;;;8.46;57.36;101459.47;6375419;23;20028;-84
2023/04/27 07:37:44;;;;;;;0.63;0.63;;;;;;;8.42;57.26;101463.84;6356183;23;20104;-84
2023/04/27 07:40:15;;;;;;;0.55;0.55;;;;;;;8.42;57.10;101463.84;6367817;23;20114;-84
2023/04/27 07:42:46;;;;;;;1.25;1.17;;;;;;;8.58;57.09;101455.94;6362989;23;20104;-84
2023/04/27 07:45:16;;;;;;;0.57;0.57;;;;;;;8.62;56.78;101450.69;6360524;23;20419;-84
2023/04/27 07:47:47;;;;;;;1.45;1.02;;;;;;;8.63;57.11;101462.88;6336387;23;20033;-84
2023/04/27 07:50:23;;;;;;;0.43;0.43;;;;;;;8.70;57.02;101455.88;6337161;23;20010;-83
2023/04/27 07:52:53;;;;;;;0.60;0.60;;;;;;;8.76;56.88;101458.44;6359146;23;20018;-83
2023/04/27 07:55:24;;;;;;;1.65;1.55;;;;;;;8.68;56.60;101457.63;6366089;23;20014;-83
2023/04/27 07:57:56;;;;;;;0.80;0.80;;;;;;;8.78;56.55;101455.78;6362658;23;20104;-83
2023/04/27 08:00:26;;;;;;;6.88;2.50;;;;;;;8.86;56.63;101453.97;6333606;23;20025;-83
2023/04/27 08:02:57;;;;;;;0.80;0.80;;;;;;;8.80;56.77;101460.13;6340150;23;20526;-82
2023/04/27 08:05:27;;;;;;;0.70;0.70;;;;;;;8.86;56.06;101456.59;6376024;23;20048;-83
2023/04/27 08:07:57;;;;;;;0.93;0.88;;;;;;;9.00;55.80;101459.09;6371451;23;20485;-83
2023/04/27 08:10:28;;;;;;;1.38;1.27;;;;;;;9.01;55.67;101445.13;6336758;23;20037;-83
2023/04/27 08:12:58;;;;;;;1.00;1.00;;;;;;;8.93;54.67;101454.81;6360800;23;20158;-83
2023/04/27 08:15:29;;;;;;;1.10;1.08;;;;;;;8.91;54.87;101452.22;6335068;23;20100;-83
2023/04/27 08:17:59;;;;;;;0.50;0.50;;;;;;;9.03;55.14;101439.88;6359806;23;20018;-82
2023/04/27 08:20:30;;;;;;;1.70;1.48;;;;;;;9.04;54.31;101447.75;6333491;23;20487;-84
2023/04/27 08:23:00;;;;;;;0.63;0.63;;;;;;;9.04;54.48;101447.75;6333770;23;20022;-83
2023/04/27 08:25:31;;;;;;;0.30;0.30;;;;;;;9.05;54.94;101438.13;6364234;23;20092;-84
2023/04/27 08:28:01;;;;;;;0.40;0.40;;;;;;;9.17;53.25;101442.38;6336189;23;20016;-83
2023/04/27 08:30:32;;;;;;;0.38;0.38;;;;;;;9.12;53.58;101440.69;6362067;23;20014;-84
2023/04/27 08:33:02;;;;;;;0.43;0.43;;;;;;;9.21;53.57;101436.25;6359882;23;20071;-84
2023/04/27 08:35:34;;;;;;;1.92;0.98;;;;;;;9.26;52.81;101437.91;6336831;23;20049;-84
2023/04/27 08:38:04;;;;;;;1.08;0.73;;;;;;;9.22;53.27;101440.56;6336822;23;20025;-84
2023/04/27 08:40:35;;;;;;;1.08;1.05;;;;;;;9.24;53.01;101437.06;6333603;23;20022;-84
2023/04/27 08:43:07;;;;;;;1.08;0.98;;;;;;;9.31;51.80;101435.25;6334180;23;20038;-83
2023/04/27 08:45:38;;;;;;;2.15;1.95;;;;;;;9.40;52.29;101445.63;6363407;23;20029;-83
2023/04/27 08:48:08;;;;;;;3.67;1.23;;;;;;;9.41;52.70;101434.25;6358171;23;20028;-85
2023/04/27 08:50:43;;;;;;;1.30;1.20;;;;;;;9.52;51.62;101433.28;6336424;23;20094;-83
2023/04/27 08:53:18;;;;;;;0.80;0.80;;;;;;;9.38;50.67;101436.91;6340355;23;20028;-83
2023/04/27 08:55:49;;;;;;;1.23;1.20;;;;;;;9.37;52.06;101423.84;6336088;23;20064;-84
2023/04/27 08:58:19;;;;;;;2.25;1.48;;;;;;;9.56;51.01;101429.72;6355625;23;20245;-83
2023/04/27 09:00:50;;;;;;;4.53;1.58;;;;;;;9.70;51.03;101432.19;6334987;23;20026;-83
2023/04/27 09:03:24;;;;;;;1.13;1.13;;;;;;;9.58;49.74;101428.84;6368639;23;20250;-83
2023/04/27 09:05:55;;;;;;;0.43;0.43;;;;;;;9.66;50.52;101436.59;6358244;23;20097;-83
2023/04/27 09:08:25;;;;;;;0.47;0.47;;;;;;;9.76;50.81;101425.13;6359012;23;20045;-84
2023/04/27 09:10:56;;;;;;;1.10;1.00;;;;;;;9.77;51.11;101418.13;6332022;23;20490;-84
2023/04/27 09:13:34;;;;;;;1.88;1.77;;;;;;;9.96;50.62;101420.50;6357757;23;20013;-83
2023/04/27 09:16:05;;;;;;;0.68;0.68;;;;;;;9.99;51.01;101421.34;6360919;23;20025;-83
2023/04/27 09:18:36;;;;;;;0.95;0.95;;;;;;;10.00;50.92;101415.22;6368851;23;20009;-84
2023/04/27 09:21:07;;;;;;;1.33;1.15;;;;;;;9.97;50.87;101412.63;6331166;23;20024;-84
2023/04/27 09:23:40;;;;;;;0.40;0.40;;;;;;;10.10;49.89;101415.09;6334250;23;20092;-84
2023/04/27 09:26:17;;;;;;;;;;;;;;;10.07;49.23;101418.63;6333667;23;20013;-84
2023/04/27 09:28:53;;;;;;;1.27;0.55;;;;;;;10.20;49.34;101421.94;6359641;23;19928;-84
2023/04/27 09:31:31;;;;;;;0.80;0.80;;;;;;;10.26;48.52;101415.72;6330448;23;20523;-84
2023/04/27 09:34:02;;;;;;;0.88;0.88;;;;;;;10.29;47.14;101411.28;6360099;23;20088;-84
2023/04/27 09:36:33;;;;;;;16.58;1.80;;;;;;;10.33;48.17;101407.75;6359459;23;20018;-83
2023/04/27 09:39:04;;;;;;;2.65;0.70;;;;;;;10.35;47.37;101407.72;6336089;23;20080;-84
2023/04/27 09:41:35;;;;;;;1.15;1.05;;;;;;;10.47;48.95;101406.69;6357603;23;20033;-83
2023/04/27 09:44:07;;;;;;;0.68;0.68;;;;;;;10.54;47.19;101411.84;6335061;23;20013;-83
2023/04/27 09:46:37;;;;;;;0.95;0.95;;;;;;;10.64;47.48;101402.06;6358735;23;20014;-83
2023/04/27 09:49:08;;;;;;;0.63;0.63;;;;;;;10.62;48.22;101395.09;6360185;23;20009;-84
2023/04/27 09:51:39;;;;;;;6.25;2.20;;;;;;;10.69;47.91;101397.59;6333093;23;20013;-83
2023/04/27 09:54:12;;;;;;;1.42;1.33;;;;;;;10.66;47.94;101397.66;6360143;23;20012;-83
2023/04/27 09:56:53;;;;;;;0.68;0.68;;;;;;;10.81;47.10;101398.28;6332923;23;20017;-83
2023/04/27 09:59:51;;;;;;;0.77;0.77;;;;;;;10.83;46.50;101397.34;6333385;23;20109;-83
2023/04/27 10:02:22;;;;;;;0.55;0.50;;;;;;;10.89;47.36;101395.53;6362245;23;20052;-82
2023/04/27 10:05:10;;;;;;;1.45;1.35;;;;;;;11.00;46.04;101398.81;6368242;23;20013;-82
2023/04/27 10:07:41;;;;;;;0.35;0.35;;;;;;;11.06;46.80;101393.47;6364259;23;20407;-82
2023/04/27 10:10:17;;;;;;;2.60;1.45;;;;;;;11.08;45.86;101380.31;6359123;23;20013;-83
2023/04/27 10:13:00;;;;;;;0.60;0.60;;;;;;;11.18;46.17;101384.50;6335335;23;20020;-83
2023/04/27 10:15:31;;;;;;;1.15;1.05;;;;;;;11.28;45.71;101395.69;6364010;23;20019;-83
2023/04/27 10:18:04;;;;;;;0.68;0.68;;;;;;;11.26;46.29;101389.59;6362963;23;20523;-83
2023/04/27 10:20:36;;;;;;;0.63;0.63;;;;;;;11.34;45.61;101378.06;6333077;23;20021;-83
2023/04/27 10:23:06;;;;;;;0.57;0.57;;;;;;;11.50;46.20;101377.72;6335245;23;20056;-83
2023/04/27 10:25:39;;;;;;;0.40;0.40;;;;;;;11.39;44.06;101380.59;6336849;23;20498;-84
2023/04/27 10:28:16;;;;;;;0.70;0.70;;;;;;;11.51;44.64;101371.59;6362140;23;20052;-84
2023/04/27 10:30:47;;;;;;;2.00;1.83;;;;;;;11.64;44.20;101362.53;6387231;23;20237;-83
2023/04/27 10:33:21;;;;;;;0.50;0.50;;;;;;;11.81;45.03;101364.81;6399146;23;19993;-83
2023/04/27 10:35:57;;;;;;;0.40;0.40;;;;;;;11.84;43.29;101365.63;6393592;23;19998;-83
2023/04/27 10:38:29;;;;;;;0.55;0.55;;;;;;;11.88;43.96;101362.03;6365450;23;20020;-83
2023/04/27 10:41:02;;;;;;;0.63;0.63;;;;;;;11.96;43.95;101355.69;6376549;23;20009;-83
2023/04/27 10:43:35;;;;;;;0.68;0.60;;;;;;;11.96;43.36;101355.69;6377060;23;20009;-83
2023/04/27 10:46:10;;;;;;;2.25;1.15;;;;;;;12.02;42.06;101359.13;6338132;23;20005;-83
2023/04/27 10:48:42;;;;;;;0.40;0.40;;;;;;;12.00;40.12;101361.78;6376678;23;20002;-83
2023/04/27 10:51:16;;;;;;;0.77;0.77;;;;;;;12.03;41.06;101353.84;6373853;23;20016;-83
2023/04/27 10:53:51;;;;;;;0.73;0.73;;;;;;;12.11;41.15;101351.00;6344464;23;20017;-83
2023/04/27 10:56:23;;;;;;;0.63;0.63;;;;;;;12.19;40.62;101356.97;6338846;23;20021;-83
2023/04/27 10:58:53;;;;;;;0.50;0.50;;;;;;;12.18;39.71;101365.78;6340819;23;20005;-83
2023/04/27 11:01:24;;;;;;;0.30;0.30;;;;;;;12.22;41.39;101356.91;6336906;23;20020;-83
2023/04/27 11:03:58;;;;;;;1.75;1.17;;;;;;;12.39;38.73;101359.13;6365249;23;20005;-83
2023/04/27 11:06:32;;;;;;;0.40;0.40;;;;;;;12.29;38.98;101352.34;6361574;23;20028;-83
2023/04/27 11:09:03;;;;;;;;;;;;;;;12.49;40.63;101349.22;6374333;23;20020;-83
2023/04/27 11:11:33;;;;;;;10.80;1.15;;;;;;;12.54;40.56;101343.84;6359231;23;20299;-84
2023/04/27 11:14:04;;;;;;;1.00;0.93;;;;;;;12.67;39.64;101353.16;6373269;23;20009;-83
2023/04/27 11:16:34;;;;;;;1.13;1.08;;;;;;;12.56;41.76;101347.31;6335843;23;20044;-83
2023/04/27 11:19:05;;;;;;;0.43;0.43;;;;;;;12.71;42.11;101348.69;6372850;23;20419;-83
2023/04/27 11:21:36;;;;;;;0.55;0.55;;;;;;;12.79;41.08;101344.06;6358201;23;20013;-87
2023/04/27 11:24:08;;;;;;;1.58;1.30;;;;;;;12.86;42.70;101340.38;6359177;23;20091;-84
2023/04/27 11:26:39;;;;;;;0.50;0.50;;;;;;;12.87;40.81;101334.19;6343976;23;20092;-87
2023/04/27 11:29:12;;;;;;;0.85;0.85;;;;;;;12.94;41.75;101339.28;6348640;23;20013;-88
2023/04/27 11:31:46;;;;;;;0.80;0.80;;;;;;;13.06;41.59;101334.56;6338840;23;20060;-87
2023/04/27 11:34:18;;;;;;;0.93;0.93;;;;;;;13.08;41.79;101331.91;6340491;23;20045;-86
2023/04/27 11:37:01;;;;;;;2.58;2.38;;;;;;;13.28;41.48;101328.69;6358960;23;20313;-84
2023/04/27 11:39:34;;;;;;;0.60;0.60;;;;;;;13.27;41.28;101320.81;6336580;23;20010;-86
2023/04/27 11:42:24;;;;;;;0.77;0.77;;;;;;;13.26;41.24;101313.84;6359962;23;20022;-86
2023/04/27 11:44:57;;;;;;;0.82;0.82;;;;;;;13.34;42.05;101314.50;6336701;23;20045;-85
2023/04/27 11:47:29;;;;;;;1.73;0.93;;;;;;;13.23;39.50;101312.13;6337439;23;20112;-87
2023/04/27 11:50:06;;;;;;;0.90;0.90;;;;;;;13.37;40.69;101301.19;6369464;23;20024;-86
2023/04/27 11:52:38;;;;;;;0.88;0.88;;;;;;;13.52;41.36;101298.13;6337022;23;20023;-86
2023/04/27 11:55:14;;;;;;;0.88;0.88;;;;;;;13.38;41.23;101293.31;6365946;23;20399;-87
2023/04/27 11:57:45;;;;;;;0.47;0.47;;;;;;;13.53;40.45;101297.22;6341470;23;20528;-86
2023/04/27 12:00:16;;;;;;;1.50;1.40;;;;;;;13.61;40.62;101298.75;6370020;23;20116;-87
2023/04/27 12:02:47;;;;;;;0.45;0.45;;;;;;;13.48;39.81;101295.63;6334656;23;20025;-86
2023/04/27 12:05:18;;;;;;;2.92;2.63;;;;;;;13.71;40.40;101299.38;6355360;23;20089;-87
2023/04/27 12:07:49;;;;;;;1.35;1.27;;;;;;;13.45;39.78;101301.03;6380572;23;20036;-86
2023/04/27 12:10:19;;;;;;;1.30;1.20;;;;;;;13.49;40.35;101306.16;6339181;23;20010;-87
2023/04/27 12:12:50;;;;;;;1.65;1.17;;;;;;;13.74;40.64;101297.50;6341253;23;20056;-90
2023/04/27 12:15:20;;;;;;;1.13;1.05;;;;;;;13.93;40.57;101300.41;6374699;23;20024;-87
2023/04/27 12:17:50;;;;;;;1.27;1.17;;;;;;;13.92;40.31;101292.56;6355064;23;20022;-87
2023/04/27 12:20:21;;;;;;;0.93;0.93;;;;;;;13.84;41.24;101296.28;6378194;23;20017;-87
2023/04/27 12:22:51;;;;;;;1.40;1.17;;;;;;;14.12;39.67;101290.13;6367267;23;20025;-87
2023/04/27 12:25:22;;;;;;;2.05;1.95;;;;;;;14.08;40.36;101282.34;6339696;23;20017;-87
2023/04/27 12:27:52;;;;;;;1.85;1.75;;;;;;;14.01;39.14;101279.03;6367207;23;20037;-86
2023/04/27 12:30:23;;;;;;;2.63;2.03;;;;;;;13.98;40.22;101279.16;6367082;23;20482;-87
2023/04/27 12:32:53;;;;;;;6.32;2.50;;;;;;;14.10;38.52;101276.09;6338544;23;20199;-84
2023/04/27 12:35:24;;;;;;;1.50;1.40;;;;;;;14.29;40.79;101276.38;6369521;23;20017;-84
2023/04/27 12:37:54;;;;;;;1.55;1.42;;;;;;;14.65;40.54;101272.50;6335993;23;20017;-84
2023/04/27 12:40:24;;;;;;;1.15;1.08;;;;;;;14.79;40.11;101278.19;6368667;23;20096;-83
2023/04/27 12:42:55;;;;;;;1.05;0.93;;;;;;;14.94;38.83;101281.19;6335735;23;20018;-85